createdAt,value
2018-11-26T00:01:46.466Z,6.40
2018-11-26T00:04:16.715Z,6.40
2018-11-26T00:06:47.427Z,6.40
2018-11-26T00:09:16.714Z,6.40
2018-11-26T00:11:46.703Z,6.40
2018-11-26T00:14:15.902Z,6.50
2018-11-26T00:16:46.021Z,6.40
2018-11-26T00:19:15.200Z,6.50
2018-11-26T00:21:45.120Z,6.40
2018-11-26T00:24:14.976Z,6.50
2018-11-26T00:26:44.190Z,6.40
2018-11-26T00:29:13.494Z,6.40
2018-11-26T00:31:42.718Z,6.40
2018-11-26T00:34:11.872Z,6.40
2018-11-26T00:36:41.057Z,6.40
2018-11-26T00:39:12.274Z,6.40
2018-11-26T00:41:42.219Z,6.40
2018-11-26T00:44:11.394Z,6.40
2018-11-26T00:46:41.513Z,6.50
2018-11-26T00:49:10.642Z,6.40
2018-11-26T00:51:43.201Z,6.40
2018-11-26T00:54:12.358Z,6.40
2018-11-26T00:56:41.324Z,6.40
2018-11-26T00:59:10.412Z,6.40
2018-11-26T01:01:39.544Z,6.40
2018-11-26T01:04:08.773Z,6.50
2018-11-26T01:06:37.839Z,6.50
2018-11-26T01:09:08.351Z,6.50
2018-11-26T01:11:37.923Z,6.40
2018-11-26T01:14:07.087Z,6.40
2018-11-26T01:16:36.152Z,6.50
2018-11-26T01:19:05.463Z,6.50
2018-11-26T01:21:34.694Z,6.50
2018-11-26T01:24:03.833Z,6.50
2018-11-26T01:26:33.059Z,6.40
2018-11-26T01:29:02.275Z,6.40
2018-11-26T01:31:31.547Z,6.40
2018-11-26T01:34:00.684Z,6.40
2018-11-26T01:36:29.818Z,6.50
2018-11-26T01:38:58.929Z,6.50
2018-11-26T01:41:28.137Z,6.50
2018-11-26T01:43:57.118Z,6.50
2018-11-26T01:46:27.331Z,6.50
2018-11-26T01:48:57.535Z,6.50
2018-11-26T01:51:27.186Z,6.50
2018-11-26T01:53:59.811Z,6.50
2018-11-26T01:56:28.929Z,6.50
2018-11-26T01:58:59.084Z,6.60
2018-11-26T02:01:28.223Z,6.50
2018-11-26T02:03:57.424Z,6.60
2018-11-26T02:06:26.848Z,6.50
2018-11-26T02:08:55.943Z,6.60
2018-11-26T02:11:25.083Z,6.50
2018-11-26T02:13:55.412Z,6.60
2018-11-26T02:16:24.631Z,6.60
2018-11-26T02:18:53.773Z,6.60
2018-11-26T02:21:23.003Z,6.50
2018-11-26T02:23:52.791Z,6.60
2018-11-26T02:26:21.987Z,6.60
2018-11-26T02:28:51.990Z,6.60
2018-11-26T02:31:21.184Z,6.60
2018-11-26T02:33:50.360Z,6.60
2018-11-26T02:36:20.279Z,6.60
2018-11-26T02:38:50.163Z,6.60
2018-11-26T02:41:19.411Z,6.60
2018-11-26T02:43:48.596Z,6.50
2018-11-26T02:46:18.012Z,6.50
2018-11-26T02:48:47.926Z,6.60
2018-11-26T02:51:17.037Z,6.60
2018-11-26T02:53:47.099Z,6.60
2018-11-26T02:56:16.174Z,6.60
2018-11-26T02:58:46.881Z,6.50
2018-11-26T03:01:16.510Z,6.50
2018-11-26T03:03:46.595Z,6.50
2018-11-26T03:06:15.762Z,6.50
2018-11-26T03:08:45.283Z,6.60
2018-11-26T03:11:14.472Z,6.50
2018-11-26T03:13:43.679Z,6.60
2018-11-26T03:16:12.886Z,6.60
2018-11-26T03:18:42.011Z,6.60
2018-11-26T03:21:11.147Z,6.60
2018-11-26T03:23:40.383Z,6.50
2018-11-26T03:26:10.302Z,6.50
2018-11-26T03:28:39.428Z,6.50
2018-11-26T03:31:08.944Z,6.60
2018-11-26T03:33:38.072Z,6.60
2018-11-26T03:36:07.327Z,6.60
2018-11-26T03:38:58.028Z,6.60
2018-11-26T03:41:27.469Z,6.50
2018-11-26T03:43:56.777Z,6.50
2018-11-26T03:46:25.965Z,6.50
2018-11-26T03:48:55.158Z,6.50
2018-11-26T03:51:24.185Z,6.60
2018-11-26T03:53:55.219Z,6.50
2018-11-26T03:56:24.352Z,6.50
2018-11-26T03:58:56.877Z,6.50
2018-11-26T04:01:26.058Z,6.50
2018-11-26T04:03:55.178Z,6.50
2018-11-26T04:06:25.321Z,6.50
2018-11-26T04:08:54.486Z,6.50
2018-11-26T04:11:23.579Z,6.60
2018-11-26T04:13:52.801Z,6.50
2018-11-26T04:16:22.519Z,6.50
2018-11-26T04:18:52.174Z,6.50
2018-11-26T04:21:21.249Z,6.50
2018-11-26T04:23:50.757Z,6.50
2018-11-26T04:26:20.019Z,6.50
2018-11-26T04:28:49.360Z,6.50
2018-11-26T04:31:18.432Z,6.50
2018-11-26T04:33:48.939Z,6.50
2018-11-26T04:36:18.068Z,6.50
2018-11-26T04:38:48.204Z,6.50
2018-11-26T04:41:17.354Z,6.60
2018-11-26T04:43:47.123Z,6.50
2018-11-26T04:46:16.350Z,6.50
2018-11-26T04:48:45.679Z,6.50
2018-11-26T04:51:14.838Z,6.50
2018-11-26T04:53:43.968Z,6.60
2018-11-26T04:56:13.091Z,6.60
2018-11-26T04:58:42.908Z,6.60
2018-11-26T05:01:11.990Z,6.50
2018-11-26T05:03:40.994Z,6.50
2018-11-26T05:06:10.146Z,6.50
2018-11-26T05:08:39.434Z,6.50
2018-11-26T05:11:09.291Z,6.50
2018-11-26T05:13:38.447Z,6.50
2018-11-26T05:16:07.746Z,6.50
2018-11-26T05:18:36.987Z,6.50
2018-11-26T05:21:06.273Z,6.50
2018-11-26T05:23:36.263Z,6.50
2018-11-26T05:26:05.886Z,6.50
2018-11-26T05:28:35.010Z,6.50
2018-11-26T05:31:04.093Z,6.50
2018-11-26T05:33:33.297Z,6.50
2018-11-26T05:36:02.454Z,6.50
2018-11-26T05:38:31.576Z,6.50
2018-11-26T05:41:00.693Z,6.40
2018-11-26T05:43:29.847Z,6.50
2018-11-26T05:45:59.253Z,6.50
2018-11-26T05:48:28.307Z,6.40
2018-11-26T05:50:57.403Z,6.40
2018-11-26T05:53:26.497Z,6.40
2018-11-26T05:55:56.070Z,6.40
2018-11-26T05:58:25.214Z,6.40
2018-11-26T06:00:56.875Z,6.40
2018-11-26T06:03:25.966Z,6.40
2018-11-26T06:05:56.162Z,6.40
2018-11-26T06:08:25.307Z,6.30
2018-11-26T06:10:55.574Z,6.30
2018-11-26T06:13:24.718Z,6.30
2018-11-26T06:15:54.308Z,6.30
2018-11-26T06:18:26.191Z,6.30
2018-11-26T06:20:55.507Z,6.30
2018-11-26T06:23:25.522Z,6.30
2018-11-26T06:25:55.433Z,6.30
2018-11-26T06:28:24.551Z,6.30
2018-11-26T06:30:53.709Z,6.30
2018-11-26T06:33:22.870Z,6.30
2018-11-26T06:35:52.255Z,6.30
2018-11-26T06:38:21.432Z,6.30
2018-11-26T06:40:51.127Z,6.30
2018-11-26T06:43:20.362Z,6.30
2018-11-26T06:45:53.467Z,6.30
2018-11-26T06:48:22.743Z,6.30
2018-11-26T06:50:52.898Z,6.30
2018-11-26T06:53:22.020Z,6.30
2018-11-26T06:55:53.191Z,6.30
2018-11-26T06:58:23.046Z,6.30
2018-11-26T07:00:52.151Z,6.30
2018-11-26T07:03:21.336Z,6.30
2018-11-26T07:05:51.405Z,6.30
2018-11-26T07:08:21.029Z,6.30
2018-11-26T07:10:50.216Z,6.30
2018-11-26T07:13:19.352Z,6.30
2018-11-26T07:15:48.560Z,6.30
2018-11-26T07:18:17.735Z,6.30
2018-11-26T07:20:47.281Z,6.30
2018-11-26T07:23:16.510Z,6.30
2018-11-26T07:25:47.764Z,6.30
2018-11-26T07:28:18.844Z,6.30
2018-11-26T07:30:47.870Z,6.30
2018-11-26T07:33:18.271Z,6.30
2018-11-26T07:35:47.924Z,6.30
2018-11-26T07:38:17.137Z,6.30
2018-11-26T07:40:48.274Z,6.30
2018-11-26T07:43:17.918Z,6.30
2018-11-26T07:45:47.231Z,6.30
2018-11-26T07:48:16.247Z,6.30
2018-11-26T07:50:45.500Z,6.30
2018-11-26T07:53:14.721Z,6.30
2018-11-26T07:55:43.957Z,6.30
2018-11-26T07:58:12.952Z,6.30
2018-11-26T08:00:42.037Z,6.30
2018-11-26T08:03:11.182Z,6.30
2018-11-26T08:05:40.467Z,6.30
2018-11-26T08:08:09.662Z,6.30
2018-11-26T08:10:39.039Z,6.30
2018-11-26T08:13:08.203Z,6.30
2018-11-26T08:15:37.302Z,6.30
2018-11-26T08:18:06.780Z,6.30
2018-11-26T08:20:35.961Z,6.30
2018-11-26T08:23:05.820Z,6.30
2018-11-26T08:25:35.084Z,6.30
2018-11-26T08:28:04.293Z,6.40
2018-11-26T08:30:33.956Z,6.40
2018-11-26T08:33:03.316Z,6.40
2018-11-26T08:35:32.611Z,6.40
2018-11-26T08:38:08.319Z,6.40
2018-11-26T08:40:43.887Z,6.40
2018-11-26T08:43:18.070Z,6.40
2018-11-26T08:45:55.453Z,6.40
2018-11-26T08:48:27.870Z,6.40
2018-11-26T08:50:59.095Z,6.30
2018-11-26T08:53:28.134Z,6.40
2018-11-26T08:56:01.051Z,6.40
2018-11-26T08:58:31.150Z,6.40
2018-11-26T09:01:05.102Z,6.30
2018-11-26T09:05:44.807Z,6.30
2018-11-26T09:08:15.591Z,6.30
2018-11-26T09:10:44.746Z,6.30
2018-11-26T09:13:13.790Z,6.30
2018-11-26T09:15:43.144Z,6.30
2018-11-26T09:18:12.350Z,6.30
2018-11-26T09:20:41.508Z,6.30
2018-11-26T09:23:10.707Z,6.30
2018-11-26T09:25:39.891Z,6.30
2018-11-26T09:28:09.003Z,6.30
2018-11-26T09:30:38.027Z,6.30
2018-11-26T09:33:08.052Z,6.30
2018-11-26T09:35:37.210Z,6.20
2018-11-26T09:38:06.493Z,6.20
2018-11-26T09:40:36.294Z,6.20
2018-11-26T09:43:06.440Z,6.20
2018-11-26T09:45:40.009Z,6.20
2018-11-26T09:48:05.263Z,6.10
2018-11-26T09:50:37.512Z,6.10
2018-11-26T09:53:06.888Z,6.10
2018-11-26T09:55:35.969Z,6.10
2018-11-26T09:58:05.346Z,6.10
2018-11-26T10:00:36.404Z,6.10
2018-11-26T10:03:06.005Z,6.10
2018-11-26T10:05:35.230Z,6.10
2018-11-26T10:08:04.443Z,6.10
2018-11-26T10:10:33.667Z,6.10
2018-11-26T10:13:02.839Z,6.10
2018-11-26T10:15:32.370Z,6.10
2018-11-26T10:18:01.409Z,6.10
2018-11-26T10:20:30.552Z,6.00
2018-11-26T10:22:59.747Z,6.00
2018-11-26T10:25:28.911Z,6.10
2018-11-26T10:28:01.433Z,6.10
2018-11-26T10:30:30.612Z,6.00
2018-11-26T10:33:00.674Z,6.00
2018-11-26T10:35:29.790Z,6.00
2018-11-26T10:38:00.135Z,6.10
2018-11-26T10:40:29.367Z,6.10
2018-11-26T10:42:58.571Z,6.00
2018-11-26T10:45:34.751Z,6.00
2018-11-26T10:48:03.971Z,6.00
2018-11-26T10:50:33.039Z,6.00
2018-11-26T10:53:02.147Z,6.00
2018-11-26T10:55:36.015Z,6.00
2018-11-26T10:58:05.731Z,6.00
2018-11-26T11:00:40.470Z,6.00
2018-11-26T11:03:10.096Z,6.00
2018-11-26T11:05:39.359Z,6.00
2018-11-26T11:08:09.400Z,5.90
2018-11-26T11:10:48.389Z,5.90
2018-11-26T11:13:19.641Z,5.90
2018-11-26T11:15:48.854Z,5.90
2018-11-26T11:18:17.963Z,5.90
2018-11-26T11:20:47.407Z,5.80
2018-11-26T11:23:16.504Z,5.90
2018-11-26T11:25:47.440Z,5.90
2018-11-26T11:28:17.128Z,5.90
2018-11-26T11:30:56.448Z,5.90
2018-11-26T11:35:55.109Z,5.90
2018-11-26T11:38:25.539Z,5.90
2018-11-26T11:40:58.580Z,5.80
2018-11-26T11:46:58.473Z,5.90
2018-11-26T11:49:28.467Z,5.80
2018-11-26T11:52:01.495Z,5.80
2018-11-26T11:54:30.710Z,5.90
2018-11-26T11:57:25.865Z,5.90
2018-11-26T12:00:28.787Z,5.80
2018-11-26T12:06:19.436Z,5.90
2018-11-26T12:08:51.694Z,5.80
2018-11-26T12:11:20.867Z,5.90
2018-11-26T12:14:05.744Z,5.90
2018-11-26T12:16:35.301Z,5.90
2018-11-26T12:19:04.541Z,5.90
2018-11-26T12:21:51.198Z,5.90
2018-11-26T12:24:22.916Z,5.90
2018-11-26T12:26:53.812Z,5.90
2018-11-26T12:29:23.568Z,5.90
2018-11-26T12:32:05.043Z,5.90
2018-11-26T12:34:35.960Z,5.90
2018-11-26T12:37:07.132Z,5.90
2018-11-26T12:39:36.252Z,5.90
2018-11-26T12:42:05.864Z,5.90
2018-11-26T12:44:47.840Z,5.90
2018-11-26T12:47:17.097Z,5.90
2018-11-26T12:49:46.270Z,5.80
2018-11-26T12:52:15.319Z,5.80
2018-11-26T12:54:45.649Z,5.80
2018-11-26T12:57:14.800Z,5.80
2018-11-26T12:59:50.951Z,5.70
2018-11-26T13:02:20.212Z,5.80
2018-11-26T13:04:49.244Z,5.70
2018-11-26T13:07:22.193Z,5.80
2018-11-26T13:09:53.140Z,5.80
2018-11-26T13:12:23.009Z,5.80
2018-11-26T13:14:52.236Z,5.90
2018-11-26T13:17:28.559Z,5.90
2018-11-26T13:20:14.909Z,5.90
2018-11-26T13:22:51.771Z,5.90
2018-11-26T13:25:23.784Z,5.80
2018-11-26T13:28:32.451Z,5.80
2018-11-26T13:31:01.662Z,5.80
2018-11-26T13:33:32.229Z,5.80
2018-11-26T13:36:01.979Z,5.80
2018-11-26T13:38:32.823Z,5.80
2018-11-26T13:41:22.512Z,5.80
2018-11-26T13:47:21.626Z,5.70
2018-11-26T13:50:03.693Z,5.70
2018-11-26T13:59:42.376Z,5.70
2018-11-26T14:02:11.568Z,5.60
2018-11-26T14:04:42.432Z,5.60
2018-11-26T14:07:11.613Z,5.60
2018-11-26T14:10:07.748Z,5.50
2018-11-26T14:12:37.057Z,5.50
2018-11-26T14:15:12.069Z,5.50
2018-11-26T14:24:50.900Z,5.50
2018-11-26T14:27:27.509Z,5.50
2018-11-26T14:30:04.733Z,5.50
2018-11-26T14:32:34.560Z,5.50
2018-11-26T14:42:01.987Z,5.40
2018-11-26T14:44:31.132Z,5.30
2018-11-26T14:47:13.567Z,5.30
2018-11-26T14:49:43.687Z,5.30
2018-11-26T14:53:02.945Z,5.30
2018-11-26T14:55:32.776Z,5.30
2018-11-26T14:58:27.557Z,5.20
2018-11-26T15:01:46.315Z,5.30
2018-11-26T15:04:57.968Z,5.20
2018-11-26T15:07:37.137Z,5.30
2018-11-26T15:10:09.729Z,5.20
2018-11-26T15:12:39.752Z,5.20
2018-11-26T15:18:39.682Z,5.20
2018-11-26T15:24:40.715Z,5.10
2018-11-26T15:27:30.877Z,5.10
2018-11-26T15:30:01.555Z,5.10
2018-11-26T15:32:35.794Z,5.10
2018-11-26T15:35:31.192Z,5.10
2018-11-26T15:38:34.077Z,5.10
2018-11-26T15:41:03.925Z,5.10
2018-11-26T15:43:46.065Z,5.10
2018-11-26T15:46:15.368Z,5.10
2018-11-26T15:48:46.340Z,5.00
2018-11-26T15:51:16.768Z,5.00
2018-11-26T15:53:48.148Z,5.00
2018-11-26T15:56:18.405Z,5.00
2018-11-26T15:58:48.319Z,5.00
2018-11-26T16:01:21.111Z,5.00
2018-11-26T16:03:54.792Z,4.90
2018-11-26T16:06:24.058Z,4.90
2018-11-26T16:08:54.993Z,4.80
2018-11-26T16:11:24.327Z,4.80
2018-11-26T16:13:53.460Z,4.80
2018-11-26T16:16:22.565Z,4.90
2018-11-26T16:18:51.797Z,4.90
2018-11-26T16:21:20.897Z,4.80
2018-11-26T16:23:50.204Z,4.80
2018-11-26T16:26:44.560Z,4.80
2018-11-26T16:35:55.925Z,4.80
2018-11-26T16:38:25.173Z,4.80
2018-11-26T16:40:54.337Z,4.80
2018-11-26T16:43:23.918Z,4.80
2018-11-26T16:45:52.981Z,4.80
2018-11-26T16:48:21.972Z,4.80
2018-11-26T16:50:51.085Z,4.80
2018-11-26T16:53:20.036Z,4.80
2018-11-26T16:55:49.089Z,4.80
2018-11-26T16:58:18.213Z,4.70
2018-11-26T17:00:47.928Z,4.80
2018-11-26T17:03:16.947Z,4.70
2018-11-26T17:05:46.084Z,4.70
2018-11-26T17:08:16.044Z,4.70
2018-11-26T17:10:45.344Z,4.70
2018-11-26T17:13:15.300Z,4.70
2018-11-26T17:15:44.471Z,4.70
2018-11-26T17:18:13.669Z,4.70
2018-11-26T17:20:42.834Z,4.70
2018-11-26T17:23:12.043Z,4.70
2018-11-26T17:25:41.157Z,4.70
2018-11-26T17:28:10.324Z,4.70
2018-11-26T17:30:40.504Z,4.70
2018-11-26T17:33:10.908Z,4.60
2018-11-26T17:35:40.116Z,4.70
2018-11-26T17:38:09.476Z,4.70
2018-11-26T17:40:39.644Z,4.60
2018-11-26T17:43:10.347Z,4.60
2018-11-26T17:45:39.515Z,4.60
2018-11-26T17:48:08.715Z,4.70
2018-11-26T17:50:40.036Z,4.70
2018-11-26T17:53:13.659Z,4.70
2018-11-26T17:55:54.252Z,4.70
2018-11-26T17:58:24.680Z,4.60
2018-11-26T18:00:59.012Z,4.60
2018-11-26T18:03:28.296Z,4.60
2018-11-26T18:05:57.577Z,4.60
2018-11-26T18:08:26.736Z,4.60
2018-11-26T18:10:55.792Z,4.60
2018-11-26T18:13:25.080Z,4.60
2018-11-26T18:15:54.288Z,4.70
2018-11-26T18:18:23.946Z,4.70
2018-11-26T18:20:52.792Z,4.70
2018-11-26T18:23:21.897Z,4.70
2018-11-26T18:25:50.899Z,4.70
2018-11-26T18:28:20.082Z,4.70
2018-11-26T18:30:51.460Z,4.60
2018-11-26T18:33:20.654Z,4.60
2018-11-26T18:35:49.860Z,4.70
2018-11-26T18:38:19.256Z,4.70
2018-11-26T18:40:50.067Z,4.70
2018-11-26T18:43:19.269Z,4.70
2018-11-26T18:45:48.501Z,4.70
2018-11-26T18:48:17.648Z,4.70
2018-11-26T18:50:46.963Z,4.70
2018-11-26T18:53:16.264Z,4.70
2018-11-26T18:55:45.483Z,4.70
2018-11-26T18:58:14.480Z,4.70
2018-11-26T19:00:45.782Z,4.60
2018-11-26T19:03:20.752Z,4.70
2018-11-26T19:05:51.218Z,4.70
2018-11-26T19:08:21.443Z,4.70
2018-11-26T19:10:55.556Z,4.70
2018-11-26T19:14:12.645Z,4.70
2018-11-26T19:16:45.010Z,4.70
2018-11-26T19:19:14.205Z,4.70
2018-11-26T19:21:43.348Z,4.60
2018-11-26T19:24:12.736Z,4.60
2018-11-26T19:26:42.084Z,4.60
2018-11-26T19:29:11.267Z,4.50
2018-11-26T19:31:40.424Z,4.50
2018-11-26T19:34:09.651Z,4.50
2018-11-26T19:36:38.784Z,4.50
2018-11-26T19:39:09.425Z,4.50
2018-11-26T19:41:38.770Z,4.50
2018-11-26T19:44:07.980Z,4.50
2018-11-26T19:46:37.541Z,4.50
2018-11-26T19:49:06.716Z,4.50
2018-11-26T19:51:35.958Z,4.50
2018-11-26T19:54:05.509Z,4.50
2018-11-26T19:56:34.516Z,4.50
2018-11-26T19:59:03.683Z,4.50
2018-11-26T20:01:32.913Z,4.50
2018-11-26T20:04:16.001Z,4.50
2018-11-26T20:06:45.104Z,4.50
2018-11-26T20:09:14.320Z,4.50
2018-11-26T20:11:43.712Z,4.60
2018-11-26T20:14:12.755Z,4.60
2018-11-26T20:16:43.403Z,4.60
2018-11-26T20:19:12.376Z,4.60
2018-11-26T20:21:41.636Z,4.50
2018-11-26T20:24:10.688Z,4.50
2018-11-26T20:26:39.724Z,4.50
2018-11-26T20:29:08.907Z,4.50
2018-11-26T20:31:38.088Z,4.50
2018-11-26T20:34:07.236Z,4.50
2018-11-26T20:36:36.396Z,4.50
2018-11-26T20:39:08.784Z,4.50
2018-11-26T20:41:38.250Z,4.40
2018-11-26T20:44:08.172Z,4.40
2018-11-26T20:46:37.287Z,4.40
2018-11-26T20:49:07.866Z,4.40
2018-11-26T20:51:37.130Z,4.40
2018-11-26T20:54:06.229Z,4.30
2018-11-26T20:56:35.411Z,4.30
2018-11-26T20:59:05.511Z,4.40
2018-11-26T21:01:34.616Z,4.40
2018-11-26T21:04:03.828Z,4.40
2018-11-26T21:06:33.109Z,4.40
2018-11-26T21:09:02.373Z,4.40
2018-11-26T21:11:31.444Z,4.40
2018-11-26T21:14:01.671Z,4.40
2018-11-26T21:16:30.837Z,4.30
2018-11-26T21:19:00.431Z,4.30
2018-11-26T21:21:29.509Z,4.30
2018-11-26T21:23:58.800Z,4.30
2018-11-26T21:26:28.024Z,4.30
2018-11-26T21:28:57.152Z,4.30
2018-11-26T21:31:26.432Z,4.30
2018-11-26T21:33:55.725Z,4.30
2018-11-26T21:36:25.031Z,4.20
2018-11-26T21:38:54.285Z,4.20
2018-11-26T21:41:23.360Z,4.10
2018-11-26T21:43:52.508Z,4.10
2018-11-26T21:46:21.525Z,4.10
2018-11-26T21:48:50.591Z,4.10
2018-11-26T21:51:19.680Z,4.10
2018-11-26T21:53:48.985Z,4.00
2018-11-26T21:56:18.272Z,4.00
2018-11-26T21:58:47.428Z,4.00
2018-11-26T22:01:16.676Z,4.00
2018-11-26T22:03:45.953Z,4.00
2018-11-26T22:06:15.141Z,4.00
2018-11-26T22:08:44.231Z,3.90
2018-11-26T22:11:13.300Z,4.00
2018-11-26T22:13:42.823Z,4.00
2018-11-26T22:16:11.812Z,4.00
2018-11-26T22:18:41.109Z,3.90
2018-11-26T22:21:10.220Z,3.90
2018-11-26T22:23:39.397Z,3.90
2018-11-26T22:26:08.579Z,3.90
2018-11-26T22:28:37.948Z,3.90
2018-11-26T22:31:07.292Z,3.90
2018-11-26T22:33:36.505Z,3.90
2018-11-26T22:36:08.176Z,3.80
2018-11-26T22:38:39.363Z,3.80
2018-11-26T22:43:56.364Z,3.80
2018-11-26T22:46:25.809Z,3.80
2018-11-26T22:48:55.083Z,3.70
2018-11-26T22:51:24.363Z,3.80
2018-11-26T22:53:53.780Z,3.80
2018-11-26T22:56:23.054Z,3.70
2018-11-26T22:58:52.319Z,3.70
2018-11-26T23:01:21.687Z,3.70
2018-11-26T23:03:50.741Z,3.70
2018-11-26T23:06:20.059Z,3.70
2018-11-26T23:08:49.157Z,3.70
2018-11-26T23:11:18.275Z,3.70
2018-11-26T23:13:47.598Z,3.70
2018-11-26T23:16:16.937Z,3.70
2018-11-26T23:18:46.063Z,3.70
2018-11-26T23:21:15.183Z,3.70
2018-11-26T23:23:44.240Z,3.60
2018-11-26T23:26:14.115Z,3.60
2018-11-26T23:28:43.316Z,3.70
2018-11-26T23:31:13.348Z,3.70
2018-11-26T23:33:42.560Z,3.70
2018-11-26T23:36:11.807Z,3.70
2018-11-26T23:38:41.069Z,3.60
2018-11-26T23:41:10.180Z,3.70
2018-11-26T23:43:39.473Z,3.60
2018-11-26T23:46:08.588Z,3.60
2018-11-26T23:48:37.855Z,3.60
2018-11-26T23:51:08.408Z,3.60
2018-11-26T23:53:37.561Z,3.60
2018-11-26T23:56:07.698Z,3.60
2018-11-26T23:58:36.883Z,3.60
